sensor_id;sensor_type;location;lat;lon;timestamp;pressure;altitude;pressure_sealevel;temperature;humidity
32083;BME280;18597;48.328;7.932;2022-08-21T00:02:20;99700.53;;;13.40;100.00
32083;BME280;18597;48.328;7.932;2022-08-21T00:04:47;99703.22;;;13.40;100.00
32083;BME280;18597;48.328;7.932;2022-08-21T00:07:14;99698.28;;;13.35;100.00
32083;BME280;18597;48.328;7.932;2022-08-21T00:09:40;99695.69;;;13.43;100.00
32083;BME280;18597;48.328;7.932;2022-08-21T00:12:07;99698.97;;;13.47;100.00
32083;BME280;18597;48.328;7.932;2022-08-21T00:14:33;99702.66;;;13.36;100.00
32083;BME280;18597;48.328;7.932;2022-08-21T00:17:00;99698.31;;;13.25;100.00
32083;BME280;18597;48.328;7.932;2022-08-21T00:19:27;99701.16;;;13.24;100.00
32083;BME280;18597;48.328;7.932;2022-08-21T00:21:54;99694.66;;;13.07;100.00
32083;BME280;18597;48.328;7.932;2022-08-21T00:24:21;99692.53;;;13.20;100.00
32083;BME280;18597;48.328;7.932;2022-08-21T00:26:48;99699.31;;;13.24;100.00
32083;BME280;18597;48.328;7.932;2022-08-21T00:29:15;99692.81;;;13.17;100.00
32083;BME280;18597;48.328;7.932;2022-08-21T00:31:42;99694.94;;;13.14;100.00
32083;BME280;18597;48.328;7.932;2022-08-21T00:34:10;99688.59;;;13.24;100.00
32083;BME280;18597;48.328;7.932;2022-08-21T00:36:37;99687.44;;;13.17;100.00
32083;BME280;18597;48.328;7.932;2022-08-21T00:39:06;99691.56;;;13.21;100.00
32083;BME280;18597;48.328;7.932;2022-08-21T00:41:34;99683.94;;;13.17;100.00
32083;BME280;18597;48.328;7.932;2022-08-21T00:44:01;99688.06;;;13.01;100.00
32083;BME280;18597;48.328;7.932;2022-08-21T00:46:27;99681.41;;;13.05;100.00
32083;BME280;18597;48.328;7.932;2022-08-21T00:48:53;99673.81;;;13.01;100.00
32083;BME280;18597;48.328;7.932;2022-08-21T00:51:27;99682.13;;;12.98;100.00
32083;BME280;18597;48.328;7.932;2022-08-21T00:53:57;99680.19;;;13.00;100.00
32083;BME280;18597;48.328;7.932;2022-08-21T00:56:25;99671.97;;;13.01;100.00
32083;BME280;18597;48.328;7.932;2022-08-21T00:58:52;99665.19;;;12.97;100.00
32083;BME280;18597;48.328;7.932;2022-08-21T01:01:20;99668.34;;;12.93;100.00
32083;BME280;18597;48.328;7.932;2022-08-21T01:03:46;99675.94;;;12.97;100.00
32083;BME280;18597;48.328;7.932;2022-08-21T01:06:12;99670.28;;;13.00;100.00
32083;BME280;18597;48.328;7.932;2022-08-21T01:08:39;99661.97;;;12.94;100.00
32083;BME280;18597;48.328;7.932;2022-08-21T01:11:05;99669.19;;;12.93;100.00
32083;BME280;18597;48.328;7.932;2022-08-21T01:13:34;99663.09;;;12.91;100.00
32083;BME280;18597;48.328;7.932;2022-08-21T01:16:04;99661.97;;;12.84;100.00
32083;BME280;18597;48.328;7.932;2022-08-21T01:18:33;99667.50;;;12.83;100.00
32083;BME280;18597;48.328;7.932;2022-08-21T01:21:15;99659.09;;;12.58;100.00
32083;BME280;18597;48.328;7.932;2022-08-21T01:23:46;99664.00;;;12.53;100.00
32083;BME280;18597;48.328;7.932;2022-08-21T01:26:15;99667.69;;;12.42;100.00
32083;BME280;18597;48.328;7.932;2022-08-21T01:29:11;99664.16;;;12.52;100.00
32083;BME280;18597;48.328;7.932;2022-08-21T01:31:39;99669.94;;;12.57;100.00
32083;BME280;18597;48.328;7.932;2022-08-21T01:34:05;99669.50;;;12.61;100.00
32083;BME280;18597;48.328;7.932;2022-08-21T01:36:32;99670.50;;;12.60;100.00
32083;BME280;18597;48.328;7.932;2022-08-21T01:38:58;99665.28;;;12.59;100.00
32083;BME280;18597;48.328;7.932;2022-08-21T01:41:24;99667.41;;;12.55;100.00
32083;BME280;18597;48.328;7.932;2022-08-21T01:43:50;99666.16;;;12.40;100.00
32083;BME280;18597;48.328;7.932;2022-08-21T01:46:17;99667.84;;;12.31;100.00
32083;BME280;18597;48.328;7.932;2022-08-21T01:48:43;99668.41;;;12.35;100.00
32083;BME280;18597;48.328;7.932;2022-08-21T01:51:09;99665.59;;;12.56;100.00
32083;BME280;18597;48.328;7.932;2022-08-21T01:53:36;99667.28;;;12.57;100.00
32083;BME280;18597;48.328;7.932;2022-08-21T01:56:06;99661.91;;;12.57;100.00
32083;BME280;18597;48.328;7.932;2022-08-21T01:58:33;99662.19;;;12.54;100.00
32083;BME280;18597;48.328;7.932;2022-08-21T02:01:00;99657.53;;;12.56;100.00
32083;BME280;18597;48.328;7.932;2022-08-21T02:03:28;99653.03;;;12.46;100.00
32083;BME280;18597;48.328;7.932;2022-08-21T02:05:54;99654.03;;;12.36;100.00
32083;BME280;18597;48.328;7.932;2022-08-21T02:08:20;99654.03;;;12.26;100.00
32083;BME280;18597;48.328;7.932;2022-08-21T02:10:49;99646.28;;;12.33;100.00
32083;BME280;18597;48.328;7.932;2022-08-21T02:13:17;99642.19;;;12.48;100.00
32083;BME280;18597;48.328;7.932;2022-08-21T02:15:43;99652.44;;;12.53;100.00
32083;BME280;18597;48.328;7.932;2022-08-21T02:18:09;99644.13;;;12.46;100.00
32083;BME280;18597;48.328;7.932;2022-08-21T02:20:42;99646.84;;;12.36;100.00
32083;BME280;18597;48.328;7.932;2022-08-21T02:23:10;99650.22;;;12.19;100.00
32083;BME280;18597;48.328;7.932;2022-08-21T02:25:36;99641.06;;;12.12;100.00
32083;BME280;18597;48.328;7.932;2022-08-21T02:28:08;99647.13;;;12.14;100.00
32083;BME280;18597;48.328;7.932;2022-08-21T02:30:40;99644.56;;;12.32;100.00
32083;BME280;18597;48.328;7.932;2022-08-21T02:33:07;99634.44;;;12.35;100.00
32083;BME280;18597;48.328;7.932;2022-08-21T02:35:36;99637.81;;;12.28;100.00
32083;BME280;18597;48.328;7.932;2022-08-21T02:38:06;99639.09;;;12.14;100.00
32083;BME280;18597;48.328;7.932;2022-08-21T02:40:36;99637.69;;;12.10;100.00
32083;BME280;18597;48.328;7.932;2022-08-21T02:43:05;99639.09;;;11.94;100.00
32083;BME280;18597;48.328;7.932;2022-08-21T02:45:33;99636.69;;;11.91;100.00
32083;BME280;18597;48.328;7.932;2022-08-21T02:48:04;99630.91;;;11.96;100.00
32083;BME280;18597;48.328;7.932;2022-08-21T02:50:36;99640.94;;;12.04;100.00
32083;BME280;18597;48.328;7.932;2022-08-21T02:53:04;99633.75;;;11.94;100.00
32083;BME280;18597;48.328;7.932;2022-08-21T02:55:33;99639.09;;;11.94;100.00
32083;BME280;18597;48.328;7.932;2022-08-21T02:58:05;99636.25;;;12.06;100.00
32083;BME280;18597;48.328;7.932;2022-08-21T03:00:33;99634.84;;;11.92;100.00
32083;BME280;18597;48.328;7.932;2022-08-21T03:03:00;99633.03;;;12.02;100.00
32083;BME280;18597;48.328;7.932;2022-08-21T03:05:28;99643.16;;;11.99;100.00
32083;BME280;18597;48.328;7.932;2022-08-21T03:07:54;99635.41;;;11.86;100.00
32083;BME280;18597;48.328;7.932;2022-08-21T03:10:22;99634.00;;;11.91;100.00
32083;BME280;18597;48.328;7.932;2022-08-21T03:12:48;99636.13;;;11.98;100.00
32083;BME280;18597;48.328;7.932;2022-08-21T03:15:18;99633.31;;;11.89;100.00
32083;BME280;18597;48.328;7.932;2022-08-21T03:17:45;99626.97;;;11.90;100.00
32083;BME280;18597;48.328;7.932;2022-08-21T03:20:14;99632.16;;;11.92;100.00
32083;BME280;18597;48.328;7.932;2022-08-21T03:22:40;99634.22;;;11.79;100.00
32083;BME280;18597;48.328;7.932;2022-08-21T03:25:07;99628.03;;;11.68;100.00
32083;BME280;18597;48.328;7.932;2022-08-21T03:27:34;99628.94;;;11.88;100.00
32083;BME280;18597;48.328;7.932;2022-08-21T03:30:03;99624.16;;;12.02;100.00
32083;BME280;18597;48.328;7.932;2022-08-21T03:32:30;99630.34;;;11.92;100.00
32083;BME280;18597;48.328;7.932;2022-08-21T03:34:57;99617.38;;;11.88;100.00
32083;BME280;18597;48.328;7.932;2022-08-21T03:37:23;99619.63;;;11.92;100.00
32083;BME280;18597;48.328;7.932;2022-08-21T03:39:50;99625.69;;;11.85;100.00
32083;BME280;18597;48.328;7.932;2022-08-21T03:42:17;99625.19;;;11.70;100.00
32083;BME280;18597;48.328;7.932;2022-08-21T03:44:43;99621.97;;;11.76;100.00
32083;BME280;18597;48.328;7.932;2022-08-21T03:47:09;99629.31;;;11.64;100.00
32083;BME280;18597;48.328;7.932;2022-08-21T03:49:36;99626.34;;;11.77;100.00
32083;BME280;18597;48.328;7.932;2022-08-21T03:52:03;99630.47;;;11.81;100.00
32083;BME280;18597;48.328;7.932;2022-08-21T03:54:29;99625.50;;;11.77;100.00
32083;BME280;18597;48.328;7.932;2022-08-21T03:56:55;99627.75;;;11.72;100.00
32083;BME280;18597;48.328;7.932;2022-08-21T03:59:22;99632.97;;;11.73;100.00
32083;BME280;18597;48.328;7.932;2022-08-21T04:01:56;99626.13;;;11.80;100.00
32083;BME280;18597;48.328;7.932;2022-08-21T04:04:23;99624.94;;;11.73;100.00
32083;BME280;18597;48.328;7.932;2022-08-21T04:06:49;99632.31;;;11.81;100.00
32083;BME280;18597;48.328;7.932;2022-08-21T04:09:16;99639.50;;;11.80;100.00
32083;BME280;18597;48.328;7.932;2022-08-21T04:11:43;99634.16;;;11.80;100.00
32083;BME280;18597;48.328;7.932;2022-08-21T04:14:09;99636.06;;;11.78;100.00
32083;BME280;18597;48.328;7.932;2022-08-21T04:16:35;99638.50;;;11.81;100.00
32083;BME280;18597;48.328;7.932;2022-08-21T04:19:00;99639.06;;;11.85;100.00
32083;BME280;18597;48.328;7.932;2022-08-21T04:21:27;99647.53;;;11.80;100.00
32083;BME280;18597;48.328;7.932;2022-08-21T04:23:55;99646.19;;;11.65;100.00
32083;BME280;18597;48.328;7.932;2022-08-21T04:26:21;99651.66;;;11.54;100.00
32083;BME280;18597;48.328;7.932;2022-08-21T04:28:47;99655.31;;;11.62;100.00
32083;BME280;18597;48.328;7.932;2022-08-21T04:31:13;99654.25;;;11.75;100.00
32083;BME280;18597;48.328;7.932;2022-08-21T04:33:39;99650.06;;;11.82;100.00
32083;BME280;18597;48.328;7.932;2022-08-21T04:36:05;99652.34;;;11.86;100.00
32083;BME280;18597;48.328;7.932;2022-08-21T04:38:32;99659.38;;;11.87;100.00
32083;BME280;18597;48.328;7.932;2022-08-21T04:40:58;99652.34;;;11.86;100.00
32083;BME280;18597;48.328;7.932;2022-08-21T04:43:24;99669.78;;;11.90;100.00
32083;BME280;18597;48.328;7.932;2022-08-21T04:45:52;99663.59;;;11.90;100.00
32083;BME280;18597;48.328;7.932;2022-08-21T04:48:21;99662.75;;;11.89;100.00
32083;BME280;18597;48.328;7.932;2022-08-21T04:51:00;99659.09;;;12.00;100.00
32083;BME280;18597;48.328;7.932;2022-08-21T04:53:54;99660.06;;;11.89;100.00
32083;BME280;18597;48.328;7.932;2022-08-21T04:56:27;99668.94;;;11.80;100.00
32083;BME280;18597;48.328;7.932;2022-08-21T04:59:00;99663.28;;;11.83;100.00
32083;BME280;18597;48.328;7.932;2022-08-21T05:01:33;99669.09;;;11.88;100.00
32083;BME280;18597;48.328;7.932;2022-08-21T05:04:02;99674.44;;;11.98;100.00
32083;BME280;18597;48.328;7.932;2022-08-21T05:06:33;99671.22;;;11.94;100.00
32083;BME280;18597;48.328;7.932;2022-08-21T05:09:00;99672.06;;;11.95;100.00
32083;BME280;18597;48.328;7.932;2022-08-21T05:11:28;99670.50;;;11.92;100.00
32083;BME280;18597;48.328;7.932;2022-08-21T05:13:55;99667.41;;;11.87;100.00
32083;BME280;18597;48.328;7.932;2022-08-21T05:16:21;99671.06;;;11.86;100.00
32083;BME280;18597;48.328;7.932;2022-08-21T05:18:47;99667.81;;;11.92;100.00
32083;BME280;18597;48.328;7.932;2022-08-21T05:21:13;99673.06;;;11.94;100.00
32083;BME280;18597;48.328;7.932;2022-08-21T05:23:39;99670.22;;;11.96;100.00
32083;BME280;18597;48.328;7.932;2022-08-21T05:26:04;99670.38;;;12.13;100.00
32083;BME280;18597;48.328;7.932;2022-08-21T05:28:31;99666.16;;;12.20;100.00
32083;BME280;18597;48.328;7.932;2022-08-21T05:30:57;99669.28;;;12.26;100.00
32083;BME280;18597;48.328;7.932;2022-08-21T05:33:24;99668.13;;;12.28;100.00
32083;BME280;18597;48.328;7.932;2022-08-21T05:35:52;99670.09;;;12.45;100.00
32083;BME280;18597;48.328;7.932;2022-08-21T05:38:19;99668.38;;;12.54;100.00
32083;BME280;18597;48.328;7.932;2022-08-21T05:40:46;99666.53;;;12.74;100.00
32083;BME280;18597;48.328;7.932;2022-08-21T05:43:12;99670.91;;;12.85;100.00
32083;BME280;18597;48.328;7.932;2022-08-21T05:45:37;99664.25;;;12.89;100.00
32083;BME280;18597;48.328;7.932;2022-08-21T05:48:22;99663.78;;;13.03;100.00
32083;BME280;18597;48.328;7.932;2022-08-21T05:50:50;99666.56;;;13.11;100.00
32083;BME280;18597;48.328;7.932;2022-08-21T05:53:19;99663.13;;;13.28;100.00
32083;BME280;18597;48.328;7.932;2022-08-21T05:55:46;99664.81;;;13.39;100.00
32083;BME280;18597;48.328;7.932;2022-08-21T05:58:16;99660.13;;;13.69;100.00
32083;BME280;18597;48.328;7.932;2022-08-21T06:00:44;99662.03;;;15.35;100.00
32083;BME280;18597;48.328;7.932;2022-08-21T06:03:15;99661.22;;;18.56;98.06
32083;BME280;18597;48.328;7.932;2022-08-21T06:05:43;99658.66;;;19.30;80.21
32083;BME280;18597;48.328;7.932;2022-08-21T06:08:09;99665.38;;;20.14;73.56
32083;BME280;18597;48.328;7.932;2022-08-21T06:10:35;99658.38;;;21.19;65.02
32083;BME280;18597;48.328;7.932;2022-08-21T06:13:00;99662.75;;;22.96;60.17
32083;BME280;18597;48.328;7.932;2022-08-21T06:15:27;99658.97;;;25.15;49.06
32083;BME280;18597;48.328;7.932;2022-08-21T06:17:54;99649.69;;;27.03;43.57
32083;BME280;18597;48.328;7.932;2022-08-21T06:20:21;99653.16;;;28.09;41.25
32083;BME280;18597;48.328;7.932;2022-08-21T06:22:47;99647.47;;;29.45;37.75
32083;BME280;18597;48.328;7.932;2022-08-21T06:25:12;99650.94;;;29.35;38.07
32083;BME280;18597;48.328;7.932;2022-08-21T06:27:38;99642.50;;;29.42;37.72
32083;BME280;18597;48.328;7.932;2022-08-21T06:30:06;99645.75;;;29.39;38.19
32083;BME280;18597;48.328;7.932;2022-08-21T06:32:34;99645.72;;;30.48;35.51
32083;BME280;18597;48.328;7.932;2022-08-21T06:35:00;99643.66;;;29.63;36.86
32083;BME280;18597;48.328;7.932;2022-08-21T06:37:26;99643.63;;;29.07;37.76
32083;BME280;18597;48.328;7.932;2022-08-21T06:39:52;99636.59;;;28.32;39.68
32083;BME280;18597;48.328;7.932;2022-08-21T06:42:18;99641.25;;;27.40;41.25
32083;BME280;18597;48.328;7.932;2022-08-21T06:44:44;99640.78;;;26.42;44.04
32083;BME280;18597;48.328;7.932;2022-08-21T06:47:11;99643.88;;;26.76;43.27
32083;BME280;18597;48.328;7.932;2022-08-21T06:49:37;99629.72;;;27.89;41.22
32083;BME280;18597;48.328;7.932;2022-08-21T06:52:03;99628.94;;;30.01;36.70
32083;BME280;18597;48.328;7.932;2022-08-21T06:54:29;99634.69;;;29.34;37.79
32083;BME280;18597;48.328;7.932;2022-08-21T06:56:56;99621.91;;;30.10;36.98
32083;BME280;18597;48.328;7.932;2022-08-21T06:59:22;99622.09;;;31.79;34.14
32083;BME280;18597;48.328;7.932;2022-08-21T07:01:47;99617.59;;;32.87;32.42
32083;BME280;18597;48.328;7.932;2022-08-21T07:04:13;99614.63;;;33.73;30.68
32083;BME280;18597;48.328;7.932;2022-08-21T07:06:39;99617.06;;;34.34;29.72
32083;BME280;18597;48.328;7.932;2022-08-21T07:09:05;99622.47;;;34.89;30.33
32083;BME280;18597;48.328;7.932;2022-08-21T07:11:31;99609.72;;;36.50;26.97
32083;BME280;18597;48.328;7.932;2022-08-21T07:13:57;99607.44;;;37.72;26.43
32083;BME280;18597;48.328;7.932;2022-08-21T07:16:24;99604.06;;;39.15;24.26
32083;BME280;18597;48.328;7.932;2022-08-21T07:18:50;99603.50;;;39.92;23.21
32083;BME280;18597;48.328;7.932;2022-08-21T07:21:17;99596.31;;;40.61;21.62
32083;BME280;18597;48.328;7.932;2022-08-21T07:23:48;99591.66;;;39.95;21.84
32083;BME280;18597;48.328;7.932;2022-08-21T07:26:17;99591.16;;;39.36;22.49
32083;BME280;18597;48.328;7.932;2022-08-21T07:28:43;99577.84;;;38.13;23.72
32083;BME280;18597;48.328;7.932;2022-08-21T07:31:10;99579.88;;;36.70;25.54
32083;BME280;18597;48.328;7.932;2022-08-21T07:33:39;99576.78;;;36.01;25.87
32083;BME280;18597;48.328;7.932;2022-08-21T07:36:07;99572.84;;;36.39;25.54
32083;BME280;18597;48.328;7.932;2022-08-21T07:38:33;99578.38;;;34.53;28.42
32083;BME280;18597;48.328;7.932;2022-08-21T07:41:00;99571.53;;;36.37;26.45
32083;BME280;18597;48.328;7.932;2022-08-21T07:43:28;99573.25;;;38.30;24.69
32083;BME280;18597;48.328;7.932;2022-08-21T07:45:55;99570.63;;;38.12;23.99
32083;BME280;18597;48.328;7.932;2022-08-21T07:48:22;99573.03;;;39.25;23.10
32083;BME280;18597;48.328;7.932;2022-08-21T07:50:48;99573.03;;;40.78;22.99
32083;BME280;18597;48.328;7.932;2022-08-21T07:53:15;99569.97;;;42.27;19.47
32083;BME280;18597;48.328;7.932;2022-08-21T07:55:41;99563.06;;;42.24;19.57
32083;BME280;18597;48.328;7.932;2022-08-21T07:58:08;99562.81;;;41.37;19.77
32083;BME280;18597;48.328;7.932;2022-08-21T08:00:34;99562.75;;;42.59;19.84
32083;BME280;18597;48.328;7.932;2022-08-21T08:03:00;99559.06;;;44.42;18.90
32083;BME280;18597;48.328;7.932;2022-08-21T08:05:30;99552.31;;;45.85;17.47
32083;BME280;18597;48.328;7.932;2022-08-21T08:07:57;99546.66;;;46.62;16.59
32083;BME280;18597;48.328;7.932;2022-08-21T08:10:23;99542.56;;;47.51;16.51
32083;BME280;18597;48.328;7.932;2022-08-21T08:12:51;99538.50;;;48.05;16.02
32083;BME280;18597;48.328;7.932;2022-08-21T08:15:22;99536.94;;;48.42;15.45
32083;BME280;18597;48.328;7.932;2022-08-21T08:17:48;99532.13;;;48.83;15.46
32083;BME280;18597;48.328;7.932;2022-08-21T08:20:16;99526.47;;;48.83;15.18
32083;BME280;18597;48.328;7.932;2022-08-21T08:22:44;99517.13;;;48.82;13.82
32083;BME280;18597;48.328;7.932;2022-08-21T08:25:12;99514.25;;;48.38;14.90
32083;BME280;18597;48.328;7.932;2022-08-21T08:27:39;99520.34;;;48.44;15.64
32083;BME280;18597;48.328;7.932;2022-08-21T08:30:08;99502.28;;;48.55;15.27
32083;BME280;18597;48.328;7.932;2022-08-21T08:32:34;99520.66;;;48.69;15.92
32083;BME280;18597;48.328;7.932;2022-08-21T08:35:00;99517.00;;;48.31;14.87
32083;BME280;18597;48.328;7.932;2022-08-21T08:37:26;99510.19;;;48.05;15.04
32083;BME280;18597;48.328;7.932;2022-08-21T08:39:52;99514.47;;;48.26;15.09
32083;BME280;18597;48.328;7.932;2022-08-21T08:42:28;99509.34;;;48.01;13.96
32083;BME280;18597;48.328;7.932;2022-08-21T08:44:59;99501.31;;;47.77;14.69
32083;BME280;18597;48.328;7.932;2022-08-21T08:47:27;99495.72;;;47.54;15.26
32083;BME280;18597;48.328;7.932;2022-08-21T08:50:03;99489.28;;;46.81;14.90
32083;BME280;18597;48.328;7.932;2022-08-21T08:52:34;99485.81;;;45.33;16.22
32083;BME280;18597;48.328;7.932;2022-08-21T08:55:09;99488.69;;;41.47;19.70
32083;BME280;18597;48.328;7.932;2022-08-21T08:57:42;99470.72;;;37.41;22.80
32083;BME280;18597;48.328;7.932;2022-08-21T09:00:13;99478.75;;;34.62;27.24
32083;BME280;18597;48.328;7.932;2022-08-21T09:02:42;99472.41;;;32.48;30.15
32083;BME280;18597;48.328;7.932;2022-08-21T09:05:24;99474.81;;;30.90;32.87
32083;BME280;18597;48.328;7.932;2022-08-21T09:08:38;99469.91;;;28.93;35.57
32083;BME280;18597;48.328;7.932;2022-08-21T09:11:34;99474.13;;;27.78;38.38
32083;BME280;18597;48.328;7.932;2022-08-21T09:15:02;99473.81;;;27.06;39.79
32083;BME280;18597;48.328;7.932;2022-08-21T09:23:49;99470.56;;;25.32;44.05
32083;BME280;18597;48.328;7.932;2022-08-21T09:26:25;99468.97;;;25.24;44.87
32083;BME280;18597;48.328;7.932;2022-08-21T09:28:56;99463.88;;;24.91;44.69
32083;BME280;18597;48.328;7.932;2022-08-21T09:31:34;99457.13;;;24.75;46.42
32083;BME280;18597;48.328;7.932;2022-08-21T09:34:03;99463.56;;;24.62;46.85
32083;BME280;18597;48.328;7.932;2022-08-21T09:36:47;99463.44;;;24.57;47.67
32083;BME280;18597;48.328;7.932;2022-08-21T09:39:28;99461.28;;;24.59;48.19
32083;BME280;18597;48.328;7.932;2022-08-21T09:42:07;99461.41;;;24.71;47.97
32083;BME280;18597;48.328;7.932;2022-08-21T09:44:39;99458.97;;;24.81;47.73
32083;BME280;18597;48.328;7.932;2022-08-21T09:47:10;99456.81;;;24.83;48.30
32083;BME280;18597;48.328;7.932;2022-08-21T09:49:41;99454.19;;;24.95;48.04
32083;BME280;18597;48.328;7.932;2022-08-21T09:52:25;99453.72;;;24.98;48.50
32083;BME280;18597;48.328;7.932;2022-08-21T09:54:54;99451.44;;;25.13;47.18
32083;BME280;18597;48.328;7.932;2022-08-21T09:57:27;99455.06;;;25.26;47.23
32083;BME280;18597;48.328;7.932;2022-08-21T10:00:31;99445.94;;;25.32;46.27
32083;BME280;18597;48.328;7.932;2022-08-21T10:08:35;99441.25;;;25.81;45.71
32083;BME280;18597;48.328;7.932;2022-08-21T10:11:13;99446.22;;;25.84;45.45
32083;BME280;18597;48.328;7.932;2022-08-21T10:16:48;99438.84;;;25.84;45.09
32083;BME280;18597;48.328;7.932;2022-08-21T10:19:53;99438.41;;;25.99;44.98
32083;BME280;18597;48.328;7.932;2022-08-21T10:25:31;99427.25;;;26.12;42.42
32083;BME280;18597;48.328;7.932;2022-08-21T10:28:26;99416.28;;;26.12;42.43
32083;BME280;18597;48.328;7.932;2022-08-21T10:31:08;99418.78;;;26.25;42.34
32083;BME280;18597;48.328;7.932;2022-08-21T10:37:55;99415.22;;;26.25;42.74
32083;BME280;18597;48.328;7.932;2022-08-21T10:40:24;99410.09;;;26.28;41.78
32083;BME280;18597;48.328;7.932;2022-08-21T10:43:04;99411.28;;;26.33;42.95
32083;BME280;18597;48.328;7.932;2022-08-21T10:48:54;99419.84;;;26.13;41.86
32083;BME280;18597;48.328;7.932;2022-08-21T10:54:24;99414.75;;;26.16;41.96
32083;BME280;18597;48.328;7.932;2022-08-21T10:57:02;99409.63;;;26.32;41.30
32083;BME280;18597;48.328;7.932;2022-08-21T10:59:48;99411.50;;;26.66;40.08
32083;BME280;18597;48.328;7.932;2022-08-21T11:02:56;99407.56;;;26.74;39.95
32083;BME280;18597;48.328;7.932;2022-08-21T11:08:29;99399.59;;;26.72;40.37
32083;BME280;18597;48.328;7.932;2022-08-21T11:11:36;99392.66;;;26.81;39.81
32083;BME280;18597;48.328;7.932;2022-08-21T11:15:01;99392.44;;;26.83;39.89
32083;BME280;18597;48.328;7.932;2022-08-21T11:17:09;99384.81;;;26.73;39.37
32083;BME280;18597;48.328;7.932;2022-08-21T11:23:08;99382.75;;;26.40;39.16
32083;BME280;18597;48.328;7.932;2022-08-21T11:25:44;99376.53;;;26.45;38.87
32083;BME280;18597;48.328;7.932;2022-08-21T11:28:28;99378.22;;;26.46;38.35
32083;BME280;18597;48.328;7.932;2022-08-21T11:38:01;99377.47;;;26.27;38.96
32083;BME280;18597;48.328;7.932;2022-08-21T11:44:04;99365.09;;;26.48;38.91
32083;BME280;18597;48.328;7.932;2022-08-21T11:46:56;99369.63;;;26.54;38.50
32083;BME280;18597;48.328;7.932;2022-08-21T11:49:49;99365.81;;;26.55;38.99
32083;BME280;18597;48.328;7.932;2022-08-21T11:52:44;99360.66;;;26.70;38.49
32083;BME280;18597;48.328;7.932;2022-08-21T11:55:33;99360.97;;;26.74;38.01
32083;BME280;18597;48.328;7.932;2022-08-21T11:58:11;99360.94;;;26.86;38.34
32083;BME280;18597;48.328;7.932;2022-08-21T12:00:47;99359.09;;;27.03;36.95
32083;BME280;18597;48.328;7.932;2022-08-21T12:03:25;99349.09;;;26.97;38.07
32083;BME280;18597;48.328;7.932;2022-08-21T12:05:57;99352.88;;;26.79;38.29
32083;BME280;18597;48.328;7.932;2022-08-21T12:08:45;99352.97;;;26.84;38.18
32083;BME280;18597;48.328;7.932;2022-08-21T12:16:46;99345.78;;;27.06;38.68
32083;BME280;18597;48.328;7.932;2022-08-21T12:19:31;99344.13;;;27.22;38.40
32083;BME280;18597;48.328;7.932;2022-08-21T12:24:45;99346.38;;;27.25;38.06
32083;BME280;18597;48.328;7.932;2022-08-21T12:27:40;99343.78;;;27.19;38.97
32083;BME280;18597;48.328;7.932;2022-08-21T12:33:17;99345.00;;;27.11;37.57
32083;BME280;18597;48.328;7.932;2022-08-21T12:35:45;99338.25;;;27.02;37.88
32083;BME280;18597;48.328;7.932;2022-08-21T12:41:04;99336.75;;;26.82;38.17
32083;BME280;18597;48.328;7.932;2022-08-21T12:43:40;99339.16;;;26.79;37.80
32083;BME280;18597;48.328;7.932;2022-08-21T12:46:15;99329.44;;;26.60;37.44
32083;BME280;18597;48.328;7.932;2022-08-21T12:48:56;99339.50;;;26.54;38.90
32083;BME280;18597;48.328;7.932;2022-08-21T12:51:31;99333.75;;;26.55;39.12
32083;BME280;18597;48.328;7.932;2022-08-21T12:53:59;99330.91;;;26.50;38.90
32083;BME280;18597;48.328;7.932;2022-08-21T12:56:30;99330.31;;;26.60;38.80
32083;BME280;18597;48.328;7.932;2022-08-21T12:59:04;99330.78;;;26.57;39.29
32083;BME280;18597;48.328;7.932;2022-08-21T13:01:38;99332.72;;;26.85;38.76
32083;BME280;18597;48.328;7.932;2022-08-21T13:04:10;99325.31;;;26.86;38.33
32083;BME280;18597;48.328;7.932;2022-08-21T13:06:43;99330.41;;;26.94;37.42
32083;BME280;18597;48.328;7.932;2022-08-21T13:09:15;99319.94;;;26.91;36.72
32083;BME280;18597;48.328;7.932;2022-08-21T13:11:46;99327.81;;;26.87;37.77
32083;BME280;18597;48.328;7.932;2022-08-21T13:14:34;99321.63;;;26.80;38.38
32083;BME280;18597;48.328;7.932;2022-08-21T13:17:04;99321.88;;;26.78;37.87
32083;BME280;18597;48.328;7.932;2022-08-21T13:19:31;99322.41;;;27.04;37.29
32083;BME280;18597;48.328;7.932;2022-08-21T13:21:58;99315.69;;;27.12;37.24
32083;BME280;18597;48.328;7.932;2022-08-21T13:24:30;99314.47;;;26.91;37.16
32083;BME280;18597;48.328;7.932;2022-08-21T13:26:58;99312.34;;;26.81;37.89
32083;BME280;18597;48.328;7.932;2022-08-21T13:29:33;99307.59;;;27.05;36.14
32083;BME280;18597;48.328;7.932;2022-08-21T13:32:04;99303.47;;;27.19;37.41
32083;BME280;18597;48.328;7.932;2022-08-21T13:34:36;99307.09;;;27.36;37.31
32083;BME280;18597;48.328;7.932;2022-08-21T13:37:07;99315.38;;;27.42;36.96
32083;BME280;18597;48.328;7.932;2022-08-21T13:39:34;99306.75;;;27.50;36.57
32083;BME280;18597;48.328;7.932;2022-08-21T13:42:03;99307.09;;;27.53;36.06
32083;BME280;18597;48.328;7.932;2022-08-21T13:44:39;99310.00;;;27.47;36.62
32083;BME280;18597;48.328;7.932;2022-08-21T13:47:07;99304.81;;;27.50;36.52
32083;BME280;18597;48.328;7.932;2022-08-21T13:49:40;99301.25;;;27.50;36.01
32083;BME280;18597;48.328;7.932;2022-08-21T13:52:18;99293.63;;;27.52;35.61
32083;BME280;18597;48.328;7.932;2022-08-21T13:55:07;99292.28;;;27.54;35.91
32083;BME280;18597;48.328;7.932;2022-08-21T13:57:34;99290.78;;;27.47;36.17
32083;BME280;18597;48.328;7.932;2022-08-21T14:00:26;99294.03;;;27.60;35.72
32083;BME280;18597;48.328;7.932;2022-08-21T14:02:54;99289.13;;;27.62;35.45
32083;BME280;18597;48.328;7.932;2022-08-21T14:05:29;99285.47;;;27.40;35.52
32083;BME280;18597;48.328;7.932;2022-08-21T14:08:10;99286.03;;;27.25;35.12
32083;BME280;18597;48.328;7.932;2022-08-21T14:10:44;99282.47;;;27.08;35.85
32083;BME280;18597;48.328;7.932;2022-08-21T14:13:56;99276.09;;;26.91;35.62
32083;BME280;18597;48.328;7.932;2022-08-21T14:16:29;99280.66;;;27.02;34.42